Observation data for Gail on 09/11/2017      Previous  Date  Next       Current Mesonet Observations  Soil Data  Daily Summary Page  Observations in Plain Language
KGGS 110500Z 10004KT 19/08 A302 RMK A01 T01930083  RH  050%=      5-min Rain = 0
KGGS 110505Z 11003KT 19/08 A302 RMK A01 T01920083  RH  051%=      5-min Rain = 0
KGGS 110510Z 11003KT 19/08 A302 RMK A01 T01890083  RH  052%=      5-min Rain = 0
KGGS 110515Z 11003KT 19/08 A302 RMK A01 T01870083  RH  052%=      5-min Rain = 0
KGGS 110520Z 11002KT 18/08 A302 RMK A01 T01840083  RH  053%=      5-min Rain = 0
KGGS 110525Z 11002KT 18/08 A302 RMK A01 T01810084  RH  055%=      5-min Rain = 0
KGGS 110530Z 10002KT 18/08 A302 RMK A01 T01770082  RH  055%=      5-min Rain = 0
KGGS 110535Z 09002KT 17/08 A302 RMK A01 T01740082  RH  056%=      5-min Rain = 0
KGGS 110540Z 09003KT 17/08 A302 RMK A01 T01740084  RH  057%=      5-min Rain = 0
KGGS 110545Z 08003KT 18/08 A302 RMK A01 T01750083  RH  056%=      5-min Rain = 0
KGGS 110550Z 09003KT 17/08 A302 RMK A01 T01670082  RH  059%=      5-min Rain = 0
KGGS 110555Z 09004KT 17/08 A302 RMK A01 T01670083  RH  059%=      5-min Rain = 0
KGGS 110600Z 09004KT 17/08 A302 RMK A01 T01720083  RH  057%=      5-min Rain = 0
KGGS 110605Z 08003KT 18/08 A302 RMK A01 T01750082  RH  056%=      5-min Rain = 0
KGGS 110610Z 10003KT 17/08 A302 RMK A01 T01740082  RH  056%=      5-min Rain = 0
KGGS 110615Z 11003KT 18/08 A302 RMK A01 T01750082  RH  056%=      5-min Rain = 0
KGGS 110620Z 10004KT 17/08 A302 RMK A01 T01710080  RH  057%=      5-min Rain = 0
KGGS 110625Z 10005KT 17/08 A302 RMK A01 T01660081  RH  059%=      5-min Rain = 0
KGGS 110630Z 11004KT 17/08 A302 RMK A01 T01670082  RH  059%=      5-min Rain = 0
KGGS 110635Z 11003KT 17/08 A302 RMK A01 T01660082  RH  059%=      5-min Rain = 0
KGGS 110640Z 12002KT 17/08 A302 RMK A01 T01690082  RH  058%=      5-min Rain = 0
KGGS 110645Z 10001KT 17/08 A302 RMK A01 T01700081  RH  057%=      5-min Rain = 0
KGGS 110650Z 06001KT 16/08 A302 RMK A01 T01620080  RH  060%=      5-min Rain = 0
KGGS 110655Z 03001KT 16/08 A302 RMK A01 T01570081  RH  062%=      5-min Rain = 0
KGGS 110700Z 02001KT 16/08 A3019 RMK A01 T01590081  RH  062%=      5-min Rain = 0
KGGS 110705Z 02000KT 16/08 A3019 RMK A01 T01640082  RH  060%=      5-min Rain = 0
KGGS 110710Z 32000KT 17/08 A3019 RMK A01 T01680081  RH  058%=      5-min Rain = 0
KGGS 110715Z 32000KT 17/08 A3019 RMK A01 T01700081  RH  057%=      5-min Rain = 0
KGGS 110720Z 06002KT 16/08 A3019 RMK A01 T01620079  RH  059%=      5-min Rain = 0
KGGS 110725Z 05002KT 15/08 A3019 RMK A01 T01520079  RH  064%=      5-min Rain = 0
KGGS 110730Z 05002KT 15/08 A3019 RMK A01 T01480080  RH  066%=      5-min Rain = 0
KGGS 110735Z 33002KT 15/08 A3019 RMK A01 T01510081  RH  065%=      5-min Rain = 0
KGGS 110740Z 29002KT 15/08 A3019 RMK A01 T01530081  RH  064%=      5-min Rain = 0
KGGS 110745Z 30001KT 15/08 A3019 RMK A01 T01520081  RH  064%=      5-min Rain = 0
KGGS 110750Z 10001KT 15/08 A3019 RMK A01 T01510080  RH  064%=      5-min Rain = 0
KGGS 110755Z 10001KT 15/08 A3019 RMK A01 T01470080  RH  066%=      5-min Rain = 0
KGGS 110800Z 09001KT 14/08 A3019 RMK A01 T01440082  RH  068%=      5-min Rain = 0
KGGS 110805Z 08001KT 14/08 A3019 RMK A01 T01430082  RH  069%=      5-min Rain = 0
KGGS 110810Z 09002KT 14/08 A3019 RMK A01 T01430082  RH  069%=      5-min Rain = 0
KGGS 110815Z 09002KT 15/08 A3019 RMK A01 T01450082  RH  068%=      5-min Rain = 0
KGGS 110820Z 09002KT 15/08 A3019 RMK A01 T01460083  RH  068%=      5-min Rain = 0
KGGS 110825Z 09002KT 15/08 A3019 RMK A01 T01510083  RH  066%=      5-min Rain = 0
KGGS 110830Z 10002KT 16/08 A3019 RMK A01 T01600084  RH  062%=      5-min Rain = 0
KGGS 110835Z 11001KT 16/09 A3019 RMK A01 T01640085  RH  061%=      5-min Rain = 0
KGGS 110840Z 10001KT 16/09 A3019 RMK A01 T01640086  RH  061%=      5-min Rain = 0
KGGS 110845Z 07001KT 16/09 A3019 RMK A01 T01620086  RH  062%=      5-min Rain = 0
KGGS 110850Z 08001KT 16/09 A3019 RMK A01 T01570085  RH  064%=      5-min Rain = 0
KGGS 110855Z 08001KT 15/09 A3019 RMK A01 T01540085  RH  065%=      5-min Rain = 0
KGGS 110900Z 09001KT 15/09 A302 RMK A01 T01520085  RH  066%=      5-min Rain = 0
KGGS 110905Z 10001KT 15/08 A302 RMK A01 T01490083  RH  067%=      5-min Rain = 0
KGGS 110910Z 10000KT 15/08 A302 RMK A01 T01460083  RH  068%=      5-min Rain = 0
KGGS 110915Z 00000KT 14/08 A302 RMK A01 T01440081  RH  068%=      5-min Rain = 0
KGGS 110920Z 00000KT 15/08 A302 RMK A01 T01450083  RH  068%=      5-min Rain = 0
KGGS 110925Z 00000KT 15/08 A302 RMK A01 T01480083  RH  067%=      5-min Rain = 0
KGGS 110930Z 00000KT 14/08 A302 RMK A01 T01430078  RH  067%=      5-min Rain = 0
KGGS 110935Z 01001KT 14/08 A3019 RMK A01 T01380076  RH  068%=      5-min Rain = 0
KGGS 110940Z 34002KT 14/08 A3019 RMK A01 T01350081  RH  071%=      5-min Rain = 0
KGGS 110945Z 33002KT 14/08 A3019 RMK A01 T01400084  RH  071%=      5-min Rain = 0
KGGS 110950Z 32001KT 14/08 A3019 RMK A01 T01440084  RH  069%=      5-min Rain = 0
KGGS 110955Z 31000KT 15/08 A3019 RMK A01 T01490084  RH  067%=      5-min Rain = 0
KGGS 111000Z 00000KT 15/08 A3019 RMK A01 T01450080  RH  067%=      5-min Rain = 0
KGGS 111005Z 00000KT 14/08 A3019 RMK A01 T01370077  RH  069%=      5-min Rain = 0
KGGS 111010Z 31000KT 13/08 A3019 RMK A01 T01320077  RH  071%=      5-min Rain = 0
KGGS 111015Z 31001KT 13/08 A3019 RMK A01 T01280081  RH  075%=      5-min Rain = 0
KGGS 111020Z 31001KT 13/09 A3019 RMK A01 T01310085  RH  076%=      5-min Rain = 0
KGGS 111025Z 32001KT 13/08 A3019 RMK A01 T01310081  RH  074%=      5-min Rain = 0
KGGS 111030Z 33001KT 13/08 A3019 RMK A01 T01280082  RH  075%=      5-min Rain = 0
KGGS 111035Z 33002KT 13/08 A3019 RMK A01 T01290084  RH  076%=      5-min Rain = 0
KGGS 111040Z 33001KT 13/08 A3019 RMK A01 T01290084  RH  076%=      5-min Rain = 0
KGGS 111045Z 33001KT 13/09 A3019 RMK A01 T01300085  RH  076%=      5-min Rain = 0
KGGS 111050Z 00000KT 13/08 A3019 RMK A01 T01320084  RH  075%=      5-min Rain = 0
KGGS 111055Z 00000KT 13/08 A3019 RMK A01 T01320083  RH  074%=      5-min Rain = 0
KGGS 111100Z 33001KT 13/08 A3019 RMK A01 T01280076  RH  073%=      5-min Rain = 0
KGGS 111105Z 33001KT 13/08 A3019 RMK A01 T01260076  RH  074%=      5-min Rain = 0
KGGS 111110Z 33001KT 12/08 A3019 RMK A01 T01240078  RH  076%=      5-min Rain = 0
KGGS 111115Z 33001KT 12/08 A302 RMK A01 T01230080  RH  077%=      5-min Rain = 0
KGGS 111120Z 33001KT 13/08 A302 RMK A01 T01250083  RH  078%=      5-min Rain = 0
KGGS 111125Z 33002KT 13/08 A302 RMK A01 T01260083  RH  077%=      5-min Rain = 0
KGGS 111130Z 33002KT 13/08 A3019 RMK A01 T01250079  RH  076%=      5-min Rain = 0
KGGS 111135Z 33002KT 12/08 A302 RMK A01 T01220076  RH  075%=      5-min Rain = 0
KGGS 111140Z 33001KT 12/08 A302 RMK A01 T01210079  RH  078%=      5-min Rain = 0
KGGS 111145Z 33001KT 12/08 A302 RMK A01 T01210083  RH  079%=      5-min Rain = 0
KGGS 111150Z 33001KT 12/08 A302 RMK A01 T01220083  RH  079%=      5-min Rain = 0
KGGS 111155Z 33000KT 12/08 A302 RMK A01 T01200078  RH  078%=      5-min Rain = 0
KGGS 111200Z 00000KT 12/08 A302 RMK A01 T01190081  RH  080%=      5-min Rain = 0
KGGS 111205Z 34000KT 12/08 A302 RMK A01 T01180082  RH  081%=      5-min Rain = 0
KGGS 111210Z 34001KT 12/08 A302 RMK A01 T01190083  RH  081%=      5-min Rain = 0
KGGS 111215Z 34001KT 12/08 A302 RMK A01 T01190083  RH  081%=      5-min Rain = 0
KGGS 111220Z 34001KT 12/08 A302 RMK A01 T01190082  RH  081%=      5-min Rain = 0
KGGS 111225Z 34001KT 12/08 A302 RMK A01 T01200084  RH  080%=      5-min Rain = 0
KGGS 111230Z 34001KT 12/08 A302 RMK A01 T01220084  RH  080%=      5-min Rain = 0
KGGS 111235Z 34001KT 12/08 A302 RMK A01 T01220084  RH  080%=      5-min Rain = 0
KGGS 111240Z 34001KT 12/09 A302 RMK A01 T01240085  RH  080%=      5-min Rain = 0
KGGS 111245Z 34001KT 13/09 A302 RMK A01 T01270086  RH  079%=      5-min Rain = 0
KGGS 111250Z 33000KT 13/09 A3021 RMK A01 T01290087  RH  078%=      5-min Rain = 0
KGGS 111255Z 34001KT 13/09 A3021 RMK A01 T01320085  RH  075%=      5-min Rain = 0
KGGS 111300Z 34001KT 14/09 A3021 RMK A01 T01380088  RH  074%=      5-min Rain = 0
KGGS 111305Z 33001KT 14/09 A3021 RMK A01 T01430088  RH  072%=      5-min Rain = 0
KGGS 111310Z 33001KT 15/09 A3021 RMK A01 T01460090  RH  071%=      5-min Rain = 0
KGGS 111315Z 33001KT 15/09 A3021 RMK A01 T01510093  RH  070%=      5-min Rain = 0
KGGS 111320Z 33001KT 15/09 A3021 RMK A01 T01520093  RH  070%=      5-min Rain = 0
KGGS 111325Z 34001KT 15/10 A3021 RMK A01 T01540096  RH  070%=      5-min Rain = 0
KGGS 111330Z 34001KT 16/10 A3021 RMK A01 T01550096  RH  070%=      5-min Rain = 0
KGGS 111335Z 34001KT 16/10 A3021 RMK A01 T01580098  RH  070%=      5-min Rain = 0
KGGS 111340Z 34000KT 16/10 A3021 RMK A01 T01620097  RH  067%=      5-min Rain = 0
KGGS 111345Z 34000KT 17/10 A3021 RMK A01 T01670098  RH  066%=      5-min Rain = 0
KGGS 111350Z 00001KT 17/10 A3021 RMK A01 T01730098  RH  063%=      5-min Rain = 0
KGGS 111355Z 02001KT 18/10 A3021 RMK A01 T01790097  RH  060%=      5-min Rain = 0
KGGS 111400Z 03001KT 18/10 A3021 RMK A01 T01820097  RH  060%=      5-min Rain = 0
KGGS 111405Z 04002KT 18/10 A3022 RMK A01 T01840099  RH  059%=      5-min Rain = 0
KGGS 111410Z 03001KT 19/10 A3022 RMK A01 T01890100  RH  058%=      5-min Rain = 0
KGGS 111415Z 01001KT 19/10 A3022 RMK A01 T01930099  RH  056%=      5-min Rain = 0
KGGS 111420Z 02001KT 20/10 A3022 RMK A01 T02000099  RH  054%=      5-min Rain = 0
KGGS 111425Z 36002KT 20/10 A3022 RMK A01 T02020098  RH  053%=      5-min Rain = 0
KGGS 111430Z 30001KT 21/10 A3022 RMK A01 T02060097  RH  051%=      5-min Rain = 0
KGGS 111435Z 35001KT 21/10 A3022 RMK A01 T02110097  RH  050%=      5-min Rain = 0
KGGS 111440Z 02001KT 21/10 A3022 RMK A01 T02120096  RH  049%=      5-min Rain = 0
KGGS 111445Z 10001KT 22/10 A3022 RMK A01 T02160096  RH  048%=      5-min Rain = 0
KGGS 111450Z 10001KT 22/10 A3022 RMK A01 T02210095  RH  046%=      5-min Rain = 0
KGGS 111455Z 19002KT 23/09 A3022 RMK A01 T02250090  RH  043%=      5-min Rain = 0
KGGS 111500Z 20002KT 23/09 A3022 RMK A01 T02250088  RH  043%=      5-min Rain = 0
KGGS 111505Z 20002KT 23/09 A3022 RMK A01 T02290088  RH  042%=      5-min Rain = 0
KGGS 111510Z 19003KT 23/09 A3022 RMK A01 T02320088  RH  041%=      5-min Rain = 0
KGGS 111515Z 22003KT 23/09 A3022 RMK A01 T02310089  RH  042%=      5-min Rain = 0
KGGS 111520Z 23004KT 23/09 A3022 RMK A01 T02300088  RH  042%=      5-min Rain = 0
KGGS 111525Z 22006KT 23/09 A3022 RMK A01 T02330090  RH  041%=      5-min Rain = 0
KGGS 111530Z 22005G10KT 24/09 A3022 RMK A01 T02350092  RH  042%=      5-min Rain = 0
KGGS 111535Z 21005KT 24/09 A3022 RMK A01 T02360094  RH  042%=      5-min Rain = 0
KGGS 111540Z 22004KT 24/09 A3022 RMK A01 T02390094  RH  041%=      5-min Rain = 0
KGGS 111545Z 19005KT 24/10 A3022 RMK A01 T02390095  RH  041%=      5-min Rain = 0
KGGS 111550Z 19005KT 24/10 A3022 RMK A01 T02420096  RH  041%=      5-min Rain = 0
KGGS 111555Z 18004KT 25/10 A3022 RMK A01 T02450096  RH  040%=      5-min Rain = 0
KGGS 111600Z 18005KT 25/10 A3022 RMK A01 T02460096  RH  040%=      5-min Rain = 0
KGGS 111605Z 21003G9KT 25/10 A3022 RMK A01 T02470096  RH  040%=      5-min Rain = 0
KGGS 111610Z 17004G9KT 25/10 A3022 RMK A01 T02490096  RH  039%=      5-min Rain = 0
KGGS 111615Z 22004KT 25/10 A3022 RMK A01 T02510096  RH  039%=      5-min Rain = 0
KGGS 111620Z 03002KT 25/09 A3022 RMK A01 T02470094  RH  039%=      5-min Rain = 0
KGGS 111625Z 15004KT 25/10 A3022 RMK A01 T02520096  RH  038%=      5-min Rain = 0
KGGS 111630Z 23001KT 26/10 A3022 RMK A01 T02560096  RH  038%=      5-min Rain = 0
KGGS 111635Z 29001KT 26/10 A3021 RMK A01 T02620095  RH  036%=      5-min Rain = 0
KGGS 111640Z 33002KT 27/09 A3021 RMK A01 T02670094  RH  035%=      5-min Rain = 0
KGGS 111645Z 14002KT 26/09 A3021 RMK A01 T02640094  RH  035%=      5-min Rain = 0
KGGS 111650Z 13002KT 27/10 A3021 RMK A01 T02650096  RH  036%=      5-min Rain = 0
KGGS 111655Z 12002KT 26/10 A3021 RMK A01 T02640095  RH  036%=      5-min Rain = 0
KGGS 111700Z 19003KT 27/09 A3021 RMK A01 T02670094  RH  035%=      5-min Rain = 0
KGGS 111705Z 28003KT 27/09 A302 RMK A01 T02690093  RH  034%=      5-min Rain = 0
KGGS 111710Z 33004G9KT 28/09 A302 RMK A01 T02750094  RH  033%=      5-min Rain = 0
KGGS 111715Z 31005G11KT 27/09 A302 RMK A01 T02730093  RH  033%=      5-min Rain = 0
KGGS 111720Z 24003KT 28/09 A302 RMK A01 T02760093  RH  033%=      5-min Rain = 0
KGGS 111725Z 30004KT 28/09 A302 RMK A01 T02750094  RH  033%=      5-min Rain = 0
KGGS 111730Z 26004KT 28/09 A3019 RMK A01 T02770093  RH  033%=      5-min Rain = 0
KGGS 111735Z 15001KT 27/09 A3019 RMK A01 T02730091  RH  033%=      5-min Rain = 0
KGGS 111740Z 24003KT 28/09 A3019 RMK A01 T02760092  RH  032%=      5-min Rain = 0
KGGS 111745Z 31002KT 28/09 A3019 RMK A01 T02790091  RH  032%=      5-min Rain = 0
KGGS 111750Z 30002KT 28/09 A3019 RMK A01 T02800092  RH  032%=      5-min Rain = 0
KGGS 111755Z 27002KT 29/09 A3019 RMK A01 T02880093  RH  030%=      5-min Rain = 0
KGGS 111800Z 28002KT 29/09 A3018 RMK A01 T02850092  RH  031%=      5-min Rain = 0
KGGS 111805Z 35002KT 28/09 A3018 RMK A01 T02830091  RH  031%=      5-min Rain = 0
KGGS 111810Z 08004KT 28/09 A3018 RMK A01 T02830092  RH  031%=      5-min Rain = 0
KGGS 111815Z 07004KT 28/09 A3018 RMK A01 T02840092  RH  031%=      5-min Rain = 0
KGGS 111820Z 10005KT 28/09 A3017 RMK A01 T02840091  RH  031%=      5-min Rain = 0
KGGS 111825Z 08002G7KT 29/09 A3017 RMK A01 T02900092  RH  030%=      5-min Rain = 0
KGGS 111830Z 09004KT 29/09 A3017 RMK A01 T02910089  RH  029%=      5-min Rain = 0
KGGS 111835Z 07005KT 29/09 A3016 RMK A01 T02930090  RH  029%=      5-min Rain = 0
KGGS 111840Z 06005KT 29/09 A3016 RMK A01 T02920089  RH  029%=      5-min Rain = 0
KGGS 111845Z 12005KT 29/09 A3016 RMK A01 T02880089  RH  030%=      5-min Rain = 0
KGGS 111850Z 10005KT 29/09 A3016 RMK A01 T02920088  RH  029%=      5-min Rain = 0
KGGS 111855Z 12004KT 29/09 A3016 RMK A01 T02900088  RH  029%=      5-min Rain = 0
KGGS 111900Z 15003KT 30/09 A3015 RMK A01 T02980089  RH  028%=      5-min Rain = 0
KGGS 111905Z 00007G12KT 30/09 A3015 RMK A01 T03010088  RH  027%=      5-min Rain = 0
KGGS 111910Z 00006KT 30/09 A3015 RMK A01 T03000088  RH  027%=      5-min Rain = 0
KGGS 111915Z 32002KT 30/09 A3015 RMK A01 T03000087  RH  027%=      5-min Rain = 0
KGGS 111920Z 36004G10KT 30/09 A3015 RMK A01 T03020087  RH  027%=      5-min Rain = 0
KGGS 111925Z 01005KT 31/09 A3015 RMK A01 T03080087  RH  026%=      5-min Rain = 0
KGGS 111930Z 34005KT 31/09 A3014 RMK A01 T03070086  RH  026%=      5-min Rain = 0
KGGS 111935Z 03007G19KT 31/09 A3014 RMK A01 T03060085  RH  026%=      5-min Rain = 0
KGGS 111940Z 04007KT 31/08 A3014 RMK A01 T03060082  RH  025%=      5-min Rain = 0
KGGS 111945Z 06007KT 31/08 A3014 RMK A01 T03050083  RH  026%=      5-min Rain = 0
KGGS 111950Z 07002KT 31/08 A3014 RMK A01 T03050082  RH  026%=      5-min Rain = 0
KGGS 111955Z 05003G9KT 30/08 A3013 RMK A01 T03030082  RH  026%=      5-min Rain = 0
KGGS 112000Z 01005KT 31/08 A3013 RMK A01 T03060084  RH  026%=      5-min Rain = 0
KGGS 112005Z 10004KT 30/08 A3012 RMK A01 T03030084  RH  026%=      5-min Rain = 0
KGGS 112010Z 15003KT 31/08 A3012 RMK A01 T03060084  RH  026%=      5-min Rain = 0
KGGS 112015Z 05005KT 31/08 A3011 RMK A01 T03100082  RH  025%=      5-min Rain = 0
KGGS 112020Z 02005G11KT 31/08 A3011 RMK A01 T03110081  RH  024%=      5-min Rain = 0
KGGS 112025Z 06005KT 32/08 A3011 RMK A01 T03150081  RH  024%=      5-min Rain = 0
KGGS 112030Z 09007KT 31/08 A301 RMK A01 T03110081  RH  025%=      5-min Rain = 0
KGGS 112035Z 01007KT 31/08 A301 RMK A01 T03130078  RH  024%=      5-min Rain = 0
KGGS 112040Z 01005G10KT 32/08 A301 RMK A01 T03160079  RH  024%=      5-min Rain = 0
KGGS 112045Z 05004G11KT 31/08 A301 RMK A01 T03140077  RH  024%=      5-min Rain = 0
KGGS 112050Z 08002KT 31/08 A301 RMK A01 T03140077  RH  024%=      5-min Rain = 0
KGGS 112055Z 02004KT 31/08 A301 RMK A01 T03130076  RH  023%=      5-min Rain = 0
KGGS 112100Z 36004KT 32/08 A3009 RMK A01 T03150076  RH  023%=      5-min Rain = 0
KGGS 112105Z 35003G9KT 32/08 A3009 RMK A01 T03160076  RH  023%=      5-min Rain = 0
KGGS 112110Z 03006KT 32/08 A3009 RMK A01 T03190075  RH  022%=      5-min Rain = 0
KGGS 112115Z 04007KT 32/07 A3009 RMK A01 T03200074  RH  022%=      5-min Rain = 0
KGGS 112120Z 35006KT 32/08 A3008 RMK A01 T03210077  RH  023%=      5-min Rain = 0
KGGS 112125Z 03005KT 32/07 A3008 RMK A01 T03180074  RH  022%=      5-min Rain = 0
KGGS 112130Z 04002KT 31/07 A3008 RMK A01 T03120072  RH  023%=      5-min Rain = 0
KGGS 112135Z 04005G10KT 32/07 A3008 RMK A01 T03160074  RH  023%=      5-min Rain = 0
KGGS 112140Z 06004KT 32/07 A3008 RMK A01 T03200074  RH  022%=      5-min Rain = 0
KGGS 112145Z 09003KT 31/07 A3008 RMK A01 T03110072  RH  023%=      5-min Rain = 0
KGGS 112150Z 08002KT 31/07 A3008 RMK A01 T03110073  RH  023%=      5-min Rain = 0
KGGS 112155Z 18002KT 32/08 A3007 RMK A01 T03160075  RH  023%=      5-min Rain = 0
KGGS 112200Z 08004KT 32/07 A3007 RMK A01 T03180073  RH  022%=      5-min Rain = 0
KGGS 112205Z 05006G12KT 32/07 A3007 RMK A01 T03180074  RH  022%=      5-min Rain = 0
KGGS 112210Z 05007G12KT 32/08 A3007 RMK A01 T03210075  RH  022%=      5-min Rain = 0
KGGS 112215Z 07007KT 32/07 A3007 RMK A01 T03210074  RH  022%=      5-min Rain = 0
KGGS 112220Z 05007KT 32/08 A3007 RMK A01 T03190076  RH  023%=      5-min Rain = 0
KGGS 112225Z 07004KT 32/08 A3007 RMK A01 T03180077  RH  023%=      5-min Rain = 0
KGGS 112230Z 07004KT 32/08 A3007 RMK A01 T03170078  RH  023%=      5-min Rain = 0
KGGS 112235Z 07006G11KT 32/08 A3007 RMK A01 T03180078  RH  023%=      5-min Rain = 0
KGGS 112240Z 10002KT 32/08 A3007 RMK A01 T03160076  RH  023%=      5-min Rain = 0
KGGS 112245Z 06001KT 32/08 A3007 RMK A01 T03160076  RH  023%=      5-min Rain = 0
KGGS 112250Z 06004G9KT 32/08 A3007 RMK A01 T03170076  RH  023%=      5-min Rain = 0
KGGS 112255Z 07002KT 31/08 A3007 RMK A01 T03140075  RH  023%=      5-min Rain = 0
KGGS 112300Z 08005KT 32/08 A3007 RMK A01 T03160076  RH  023%=      5-min Rain = 0
KGGS 112305Z 04004KT 32/08 A3007 RMK A01 T03180077  RH  023%=      5-min Rain = 0
KGGS 112310Z 08004KT 32/08 A3007 RMK A01 T03160075  RH  023%=      5-min Rain = 0
KGGS 112315Z 09002KT 32/08 A3006 RMK A01 T03150076  RH  023%=      5-min Rain = 0
KGGS 112320Z 06003KT 31/08 A3006 RMK A01 T03120075  RH  023%=      5-min Rain = 0
KGGS 112325Z 03005KT 31/08 A3006 RMK A01 T03130077  RH  024%=      5-min Rain = 0
KGGS 112330Z 06005KT 31/08 A3006 RMK A01 T03130077  RH  024%=      5-min Rain = 0
KGGS 112335Z 07005KT 31/08 A3006 RMK A01 T03110078  RH  024%=      5-min Rain = 0
KGGS 112340Z 08004KT 31/08 A3006 RMK A01 T03090079  RH  025%=      5-min Rain = 0
KGGS 112345Z 07003KT 31/08 A3006 RMK A01 T03090080  RH  025%=      5-min Rain = 0
KGGS 112350Z 07005KT 31/08 A3006 RMK A01 T03080082  RH  025%=      5-min Rain = 0
KGGS 112355Z 07005KT 31/08 A3006 RMK A01 T03060080  RH  025%=      5-min Rain = 0
KGGS 120000Z 07007KT 31/08 A3006 RMK A01 T03050079  RH  025%=      5-min Rain = 0
KGGS 120005Z 07005KT 30/08 A3006 RMK A01 T03030078  RH  025%=      5-min Rain = 0
KGGS 120010Z 08004KT 30/08 A3006 RMK A01 T03020079  RH  025%=      5-min Rain = 0
KGGS 120015Z 07004KT 30/08 A3006 RMK A01 T03000081  RH  026%=      5-min Rain = 0
KGGS 120020Z 07004KT 30/08 A3006 RMK A01 T02970083  RH  027%=      5-min Rain = 0
KGGS 120025Z 08004KT 29/08 A3006 RMK A01 T02940082  RH  027%=      5-min Rain = 0
KGGS 120030Z 08003KT 29/08 A3005 RMK A01 T02910083  RH  028%=      5-min Rain = 0
KGGS 120035Z 08004KT 29/09 A3006 RMK A01 T02870086  RH  029%=      5-min Rain = 0
KGGS 120040Z 08004KT 28/09 A3006 RMK A01 T02840085  RH  030%=      5-min Rain = 0
KGGS 120045Z 08004KT 28/09 A3006 RMK A01 T02790086  RH  030%=      5-min Rain = 0
KGGS 120050Z 08004KT 27/09 A3006 RMK A01 T02740087  RH  032%=      5-min Rain = 0
KGGS 120055Z 08004KT 27/09 A3006 RMK A01 T02690087  RH  033%=      5-min Rain = 0
KGGS 120100Z 08004KT 27/09 A3006 RMK A01 T02650087  RH  033%=      5-min Rain = 0
KGGS 120105Z 08004KT 26/09 A3006 RMK A01 T02640086  RH  033%=      5-min Rain = 0
KGGS 120110Z 08005KT 26/09 A3006 RMK A01 T02600086  RH  034%=      5-min Rain = 0
KGGS 120115Z 08004KT 26/09 A3006 RMK A01 T02570085  RH  035%=      5-min Rain = 0
KGGS 120120Z 08005KT 25/09 A3006 RMK A01 T02540085  RH  035%=      5-min Rain = 0
KGGS 120125Z 09005KT 25/09 A3006 RMK A01 T02510085  RH  036%=      5-min Rain = 0
KGGS 120130Z 09005KT 25/09 A3006 RMK A01 T02470085  RH  037%=      5-min Rain = 0
KGGS 120135Z 09005KT 25/08 A3006 RMK A01 T02460084  RH  037%=      5-min Rain = 0
KGGS 120140Z 09005KT 25/08 A3006 RMK A01 T02470083  RH  036%=      5-min Rain = 0
KGGS 120145Z 09005KT 25/08 A3006 RMK A01 T02480082  RH  036%=      5-min Rain = 0
KGGS 120150Z 09006KT 25/08 A3006 RMK A01 T02480081  RH  036%=      5-min Rain = 0
KGGS 120155Z 09005KT 25/08 A3007 RMK A01 T02470081  RH  036%=      5-min Rain = 0
KGGS 120200Z 10005KT 25/08 A3007 RMK A01 T02460081  RH  036%=      5-min Rain = 0
KGGS 120205Z 11006KT 25/08 A3007 RMK A01 T02450081  RH  036%=      5-min Rain = 0
KGGS 120210Z 13005KT 24/08 A3007 RMK A01 T02380083  RH  038%=      5-min Rain = 0
KGGS 120215Z 11005KT 23/08 A3007 RMK A01 T02300084  RH  040%=      5-min Rain = 0
KGGS 120220Z 12005KT 23/08 A3007 RMK A01 T02290083  RH  040%=      5-min Rain = 0
KGGS 120225Z 12004KT 23/08 A3007 RMK A01 T02290082  RH  040%=      5-min Rain = 0
KGGS 120230Z 12003KT 23/08 A3007 RMK A01 T02260082  RH  041%=      5-min Rain = 0
KGGS 120235Z 12003KT 22/08 A3008 RMK A01 T02220082  RH  042%=      5-min Rain = 0
KGGS 120240Z 13003KT 22/08 A3008 RMK A01 T02210082  RH  042%=      5-min Rain = 0
KGGS 120245Z 13003KT 22/08 A3008 RMK A01 T02210082  RH  042%=      5-min Rain = 0
KGGS 120250Z 13003KT 22/08 A3008 RMK A01 T02180082  RH  043%=      5-min Rain = 0
KGGS 120255Z 13003KT 22/08 A3008 RMK A01 T02150082  RH  044%=      5-min Rain = 0
KGGS 120300Z 13002KT 21/08 A3008 RMK A01 T02110081  RH  044%=      5-min Rain = 0
KGGS 120305Z 11002KT 21/08 A3008 RMK A01 T02060081  RH  046%=      5-min Rain = 0
KGGS 120310Z 12001KT 21/08 A3008 RMK A01 T02060081  RH  046%=      5-min Rain = 0
KGGS 120315Z 12001KT 21/08 A3008 RMK A01 T02090081  RH  045%=      5-min Rain = 0
KGGS 120320Z 13001KT 21/08 A3008 RMK A01 T02110081  RH  044%=      5-min Rain = 0
KGGS 120325Z 14002KT 21/08 A3009 RMK A01 T02080082  RH  046%=      5-min Rain = 0
KGGS 120330Z 14001KT 21/08 A3008 RMK A01 T02050082  RH  046%=      5-min Rain = 0
KGGS 120335Z 12001KT 20/08 A3008 RMK A01 T02030083  RH  047%=      5-min Rain = 0
KGGS 120340Z 10001KT 19/09 A3009 RMK A01 T01940085  RH  051%=      5-min Rain = 0
KGGS 120345Z 11002KT 20/08 A3009 RMK A01 T01950083  RH  050%=      5-min Rain = 0
KGGS 120350Z 11002KT 20/08 A3009 RMK A01 T02010082  RH  048%=      5-min Rain = 0
KGGS 120355Z 09003KT 19/08 A3009 RMK A01 T01940083  RH  050%=      5-min Rain = 0
KGGS 120400Z 09004KT 19/09 A3009 RMK A01 T01890085  RH  052%=      5-min Rain = 0
KGGS 120405Z 08004KT 19/09 A301 RMK A01 T01900087  RH  053%=      5-min Rain = 0
KGGS 120410Z 08003KT 20/09 A3009 RMK A01 T01950087  RH  051%=      5-min Rain = 0
KGGS 120415Z 08002KT 20/09 A3009 RMK A01 T02020086  RH  049%=      5-min Rain = 0
KGGS 120420Z 06000KT 20/09 A301 RMK A01 T02020085  RH  048%=      5-min Rain = 0
KGGS 120425Z 07000KT 20/09 A301 RMK A01 T01990085  RH  049%=      5-min Rain = 0
KGGS 120430Z 09002KT 20/09 A301 RMK A01 T02000085  RH  049%=      5-min Rain = 0
KGGS 120435Z 10003KT 20/09 A301 RMK A01 T01980086  RH  050%=      5-min Rain = 0
KGGS 120440Z 10002KT 20/09 A301 RMK A01 T01970086  RH  050%=      5-min Rain = 0
KGGS 120445Z 07000KT 19/09 A301 RMK A01 T01860086  RH  053%=      5-min Rain = 0
KGGS 120450Z 00000KT 18/09 A301 RMK A01 T01830087  RH  055%=      5-min Rain = 0
KGGS 120455Z 06001KT 18/09 A301 RMK A01 T01830085  RH  055%=      5-min Rain = 0

Page generated in 0.0285 seconds.